Time;durP1;ratioP1;P1;durP2;ratioP2;P2;SDS_P1;SDS_P2;PMS_P1;PMS_P2;Temp;Humidity;BMP_temperature;BMP_pressure;BME280_temperature;BME280_humidity;BME280_pressure;Samples;Min_cycle;Max_cycle;Signal;HPM_P1;HPM_P2
2022/07/08 00:00:53;;;;;;;6.03;1.90;;;16.80;99.90;;;;;;6178115;23;20538;-83
2022/07/08 00:03:21;;;;;;;5.03;1.60;;;16.70;99.90;;;;;;6151351;23;20176;-83
2022/07/08 00:05:48;;;;;;;7.53;1.60;;;16.70;83.10;;;;;;6153118;23;20255;-84
2022/07/08 00:08:15;;;;;;;6.53;2.37;;;16.80;99.90;;;;;;6178026;23;20176;-85
2022/07/08 00:10:41;;;;;;;4.83;1.90;;;16.80;99.90;;;;;;6152287;23;20187;-84
2022/07/08 00:13:08;;;;;;;6.37;1.73;;;16.80;1.00;;;;;;6153437;23;20188;-84
2022/07/08 00:15:36;;;;;;;5.50;1.80;;;16.80;1.00;;;;;;6178405;23;20200;-84
2022/07/08 00:18:03;;;;;;;5.40;1.93;;;16.70;1.00;;;;;;6151844;23;20601;-84
2022/07/08 00:20:30;;;;;;;4.90;1.53;;;16.70;19.70;;;;;;6152663;23;20168;-84
2022/07/08 00:22:57;;;;;;;5.17;1.67;;;16.70;99.90;;;;;;6176484;23;20169;-84
2022/07/08 00:25:24;;;;;;;5.87;1.67;;;16.80;6.50;;;;;;6153156;23;20175;-84
2022/07/08 00:27:51;;;;;;;8.60;2.10;;;16.90;1.00;;;;;;6179566;23;20168;-84
2022/07/08 00:30:18;;;;;;;3.73;1.40;;;16.70;99.90;;;;;;6153333;23;20172;-83
2022/07/08 00:32:45;;;;;;;6.27;1.37;;;16.70;1.00;;;;;;6153244;23;20226;-83
2022/07/08 00:35:11;;;;;;;3.97;1.70;;;16.70;1.00;;;;;;6153490;23;20690;-84
2022/07/08 00:37:38;;;;;;;6.93;1.63;;;16.60;99.90;;;;;;6177817;23;20168;-83
2022/07/08 00:40:06;;;;;;;5.63;1.87;;;16.50;1.00;;;;;;6155022;23;20512;-83
2022/07/08 00:42:33;;;;;;;4.83;1.60;;;16.50;1.00;;;;;;6153493;23;20162;-83
2022/07/08 00:45:00;;;;;;;5.50;1.53;;;16.40;1.00;;;;;;6160320;23;20205;-84
2022/07/08 00:47:27;;;;;;;7.87;2.07;;;16.50;1.00;;;;;;6161028;23;20160;-83
2022/07/08 00:49:54;;;;;;;4.83;1.50;;;16.50;1.00;;;;;;6185035;23;20567;-83
2022/07/08 00:52:22;;;;;;;6.87;1.67;;;16.60;1.00;;;;;;6160684;23;20191;-84
2022/07/08 00:54:49;;;;;;;3.70;1.57;;;16.40;1.00;;;;;;6212189;23;20681;-83
2022/07/08 00:57:16;;;;;;;7.50;1.70;;;16.50;1.00;;;;;;6159807;23;20161;-83
2022/07/08 00:59:43;;;;;;;6.07;2.00;;;16.50;1.00;;;;;;6159251;23;20241;-83
2022/07/08 01:02:10;;;;;;;5.87;1.27;;;16.60;99.90;;;;;;6159582;23;20176;-83
2022/07/08 01:04:38;;;;;;;4.90;1.87;;;16.60;99.90;;;;;;6134377;23;20166;-83
2022/07/08 01:07:06;;;;;;;4.30;1.30;;;16.50;99.90;;;;;;6158155;23;20714;-83
2022/07/08 01:09:34;;;;;;;5.27;1.80;;;16.60;1.00;;;;;;6210718;23;20177;-83
2022/07/08 01:12:01;;;;;;;7.70;2.60;;;16.50;99.90;;;;;;6134922;23;20238;-83
2022/07/08 01:14:28;;;;;;;6.57;1.60;;;16.50;99.90;;;;;;6159178;23;20167;-82
2022/07/08 01:16:55;;;;;;;6.73;1.70;;;16.50;99.90;;;;;;6133034;23;20229;-83
2022/07/08 01:19:22;;;;;;;7.20;2.10;;;16.50;1.00;;;;;;6210563;23;20190;-83
2022/07/08 01:21:50;;;;;;;5.17;1.50;;;16.40;1.00;;;;;;6183494;23;20164;-83
2022/07/08 01:24:18;;;;;;;4.23;1.70;;;16.40;1.00;;;;;;6163395;23;20745;-83
2022/07/08 01:26:45;;;;;;;3.87;1.87;;;16.40;1.00;;;;;;6165548;23;20168;-83
2022/07/08 01:29:12;;;;;;;6.37;2.63;;;16.40;1.00;;;;;;6220215;23;20174;-84
2022/07/08 01:31:40;;;;;;;8.43;2.27;;;16.60;1.00;;;;;;6173300;23;20163;-84
2022/07/08 01:34:07;;;;;;;6.23;1.97;;;16.40;1.00;;;;;;6172527;23;20199;-84
2022/07/08 01:36:33;;;;;;;7.13;1.90;;;16.40;1.00;;;;;;6168835;23;20164;-84
2022/07/08 01:39:00;;;;;;;6.23;1.70;;;16.30;99.90;;;;;;6168227;23;20171;-83
2022/07/08 01:41:27;;;;;;;5.03;1.60;;;16.30;1.00;;;;;;6141342;23;20194;-83
2022/07/08 01:43:56;;;;;;;6.93;1.87;;;16.10;1.00;;;;;;6133718;23;20202;-83
2022/07/08 01:46:23;;;;;;;7.20;2.20;;;16.00;1.00;;;;;;6182522;23;20217;-84
2022/07/08 01:48:50;;;;;;;8.37;1.83;;;16.00;1.00;;;;;;6155842;23;20163;-84
2022/07/08 01:51:17;;;;;;;3.43;1.37;;;16.00;99.90;;;;;;6160613;23;20222;-83
2022/07/08 01:53:43;;;;;;;4.73;1.87;;;16.10;1.00;;;;;;6159587;23;20292;-83
2022/07/08 01:56:10;;;;;;;6.13;2.13;;;16.10;1.00;;;;;;6183251;23;20171;-83
2022/07/08 01:58:37;;;;;;;7.20;2.00;;;16.00;1.00;;;;;;6156331;23;20192;-83
2022/07/08 02:01:04;;;;;;;4.17;2.10;;;16.10;1.00;;;;;;6154787;23;20202;-83
2022/07/08 02:03:31;;;;;;;9.50;2.53;;;16.20;1.00;;;;;;6152640;23;20227;-83
2022/07/08 02:05:58;;;;;;;7.03;1.77;;;16.10;92.40;;;;;;6179485;23;20164;-83
2022/07/08 02:08:25;;;;;;;7.20;1.97;;;16.10;99.90;;;;;;6151057;23;20171;-83
2022/07/08 02:13:37;;;;;;;5.07;1.60;;;16.30;1.00;;;;;;6177212;23;20188;-83
2022/07/08 02:16:05;;;;;;;7.27;1.87;;;16.30;99.90;;;;;;6176751;23;20232;-84
2022/07/08 02:18:32;;;;;;;7.80;2.80;;;16.30;1.00;;;;;;6151386;23;20247;-84
2022/07/08 02:21:00;;;;;;;6.53;1.63;;;16.30;1.00;;;;;;6151853;23;20702;-83
2022/07/08 02:23:26;;;;;;;4.07;1.93;;;16.30;1.00;;;;;;6151099;23;20215;-84
2022/07/08 02:25:53;;;;;;;4.63;1.83;;;16.30;99.90;;;;;;6151866;23;20208;-83
2022/07/08 02:28:20;;;;;;;6.07;1.60;;;16.30;1.00;;;;;;6153474;23;20165;-83
2022/07/08 02:30:47;;;;;;;7.83;2.13;;;16.30;1.00;;;;;;6151856;23;20163;-83
2022/07/08 02:33:14;;;;;;;3.97;1.60;;;16.30;1.00;;;;;;6151600;23;20243;-83
2022/07/08 02:35:41;;;;;;;8.47;2.60;;;16.20;1.00;;;;;;6150098;23;20229;-83
2022/07/08 02:38:07;;;;;;;6.23;1.60;;;16.10;1.00;;;;;;6149790;23;20215;-83
2022/07/08 02:40:34;;;;;;;5.97;2.10;;;16.10;99.90;;;;;;6151266;23;20250;-83
2022/07/08 02:43:01;;;;;;;6.33;1.90;;;16.20;99.90;;;;;;6150958;23;20655;-83
2022/07/08 02:45:28;;;;;;;7.43;2.23;;;16.10;98.90;;;;;;6152136;23;20170;-82
2022/07/08 02:47:55;;;;;;;7.60;2.13;;;15.90;1.00;;;;;;6126681;23;20168;-83
2022/07/08 02:50:22;;;;;;;6.53;1.83;;;15.80;1.00;;;;;;6125612;23;20959;-83
2022/07/08 02:52:48;;;;;;;3.03;1.53;;;15.90;1.00;;;;;;6127053;23;20199;-83
2022/07/08 02:55:15;;;;;;;8.17;2.37;;;15.90;1.00;;;;;;6127193;23;20238;-83
2022/07/08 02:57:42;;;;;;;6.47;2.00;;;15.90;1.00;;;;;;6126956;23;20164;-83
2022/07/08 03:00:09;;;;;;;5.97;1.93;;;15.80;1.00;;;;;;6127505;23;20164;-82
2022/07/08 03:02:37;;;;;;;5.50;1.70;;;15.70;1.00;;;;;;6126751;23;20246;-83
2022/07/08 03:05:04;;;;;;;4.50;1.90;;;15.60;99.90;;;;;;6127491;23;20180;-83
2022/07/08 03:07:31;;;;;;;9.93;2.90;;;15.80;99.90;;;;;;6153386;23;20176;-83
2022/07/08 03:09:57;;;;;;;4.90;1.60;;;15.60;99.90;;;;;;6129126;23;20167;-83
2022/07/08 03:12:25;;;;;;;4.93;2.17;;;15.60;1.80;;;;;;6127570;23;20194;-83
2022/07/08 03:14:52;;;;;;;5.07;1.53;;;15.60;1.00;;;;;;6129850;23;20537;-83
2022/07/08 03:17:19;;;;;;;8.07;1.80;;;15.50;1.00;;;;;;6128729;23;20235;-83
2022/07/08 03:19:46;;;;;;;6.63;1.50;;;15.60;1.00;;;;;;6129849;23;20195;-83
2022/07/08 03:22:13;;;;;;;5.93;1.60;;;15.50;99.90;;;;;;6128334;23;20172;-83
2022/07/08 03:24:40;;;;;;;4.53;2.00;;;15.40;88.20;;;;;;6129447;23;20206;-83
2022/07/08 03:27:07;;;;;;;3.30;1.60;;;15.30;53.10;;;;;;6128681;23;20184;-81
2022/07/08 03:29:34;;;;;;;6.40;1.70;;;15.20;1.00;;;;;;6129810;23;20170;-82
2022/07/08 03:32:00;;;;;;;5.87;1.70;;;15.00;1.00;;;;;;6153068;23;20212;-82
2022/07/08 03:34:27;;;;;;;2.60;1.90;;;14.80;1.00;;;;;;6127407;23;20180;-82
2022/07/08 03:37:02;;;;;;;6.57;1.70;;;14.60;99.90;;;;;;6127625;23;20199;-82
2022/07/08 03:39:28;;;;;;;4.90;1.93;;;14.30;1.00;;;;;;6126622;23;20193;-82
2022/07/08 03:41:55;;;;;;;5.20;1.70;;;14.20;99.90;;;;;;6126124;23;20178;-81
2022/07/08 03:44:22;;;;;;;5.80;2.07;;;14.10;1.00;;;;;;6147344;23;20235;-81
2022/07/08 03:46:49;;;;;;;6.17;2.03;;;14.10;1.00;;;;;;6206401;23;20662;-82
2022/07/08 03:49:16;;;;;;;3.93;2.23;;;14.20;1.00;;;;;;6180136;23;20170;-81
2022/07/08 03:51:43;;;;;;;6.87;2.40;;;14.10;99.90;;;;;;6132243;23;20159;-82
2022/07/08 03:54:10;;;;;;;5.37;2.70;;;14.20;99.90;;;;;;6132240;23;20181;-82
2022/07/08 03:56:37;;;;;;;8.53;2.37;;;14.10;1.00;;;;;;6131401;23;20217;-82
2022/07/08 03:59:04;;;;;;;6.73;2.47;;;14.20;1.00;;;;;;6181454;23;20167;-81
2022/07/08 04:01:30;;;;;;;5.60;2.00;;;14.30;1.00;;;;;;6156351;23;20512;-81
2022/07/08 04:03:57;;;;;;;6.93;2.50;;;14.30;1.00;;;;;;6130099;23;20257;-82
2022/07/08 04:06:24;;;;;;;2.63;2.10;;;14.40;1.00;;;;;;6155496;23;20178;-82
2022/07/08 04:08:51;;;;;;;5.83;2.30;;;14.50;99.90;;;;;;6132406;23;20216;-82
2022/07/08 04:11:18;;;;;;;4.17;2.67;;;14.40;1.00;;;;;;6155951;23;20170;-82
2022/07/08 04:13:45;;;;;;;6.53;2.30;;;14.50;99.90;;;;;;6156261;23;20233;-81
2022/07/08 04:16:13;;;;;;;4.67;1.93;;;14.50;1.00;;;;;;6155971;23;20167;-82
2022/07/08 04:18:41;;;;;;;6.10;1.70;;;14.40;99.90;;;;;;6158539;23;20226;-81
2022/07/08 04:21:08;;;;;;;5.03;2.20;;;14.40;1.00;;;;;;6157794;23;20154;-82
2022/07/08 04:23:37;;;;;;;5.60;2.23;;;14.40;1.00;;;;;;6183770;23;20505;-81
2022/07/08 04:26:04;;;;;;;8.80;2.30;;;14.40;1.00;;;;;;6182611;23;20802;-82
2022/07/08 04:28:32;;;;;;;7.77;1.90;;;14.30;51.80;;;;;;6134068;23;20228;-82
2022/07/08 04:31:00;;;;;;;7.80;2.00;;;14.40;99.90;;;;;;6182365;23;20236;-82
2022/07/08 04:33:27;;;;;;;4.50;1.83;;;14.50;1.00;;;;;;6156570;23;20259;-82
2022/07/08 04:35:53;;;;;;;2.80;1.80;;;14.50;99.90;;;;;;6133105;23;20616;-82
2022/07/08 04:38:20;;;;;;;5.53;2.00;;;14.50;1.00;;;;;;6133596;23;20516;-80
2022/07/08 04:40:47;;;;;;;5.20;1.83;;;14.50;1.00;;;;;;6135003;23;20195;-80
2022/07/08 04:43:14;;;;;;;6.70;1.87;;;14.50;99.90;;;;;;6159333;23;20251;-81
2022/07/08 04:45:47;;;;;;;7.70;2.13;;;14.40;1.00;;;;;;6155561;23;20171;-79
2022/07/08 04:48:14;;;;;;;7.27;1.83;;;14.30;82.50;;;;;;6153647;23;20172;-83
2022/07/08 04:50:41;;;;;;;4.77;2.03;;;14.30;1.00;;;;;;6128492;23;20175;-82
2022/07/08 04:53:08;;;;;;;5.00;2.07;;;14.30;1.00;;;;;;6152530;23;20246;-83
2022/07/08 04:55:35;;;;;;;3.13;1.80;;;14.40;1.00;;;;;;6130317;23;20464;-83
2022/07/08 04:58:05;;;;;;;8.03;2.10;;;14.50;99.90;;;;;;6129594;23;20259;-84
2022/07/08 05:00:33;;;;;;;13.40;2.80;;;14.50;24.30;;;;;;6153273;23;20209;-83
2022/07/08 05:03:01;;;;;;;6.37;2.27;;;14.80;1.00;;;;;;6128617;23;20243;-83
2022/07/08 05:05:30;;;;;;;6.53;1.97;;;14.90;1.00;;;;;;6128830;23;20172;-84
2022/07/08 05:07:58;;;;;;;7.20;2.33;;;14.90;99.90;;;;;;6128417;23;20599;-83
2022/07/08 05:10:25;;;;;;;5.20;2.30;;;15.00;99.90;;;;;;6130709;23;20161;-84
2022/07/08 05:12:52;;;;;;;5.67;1.90;;;15.30;1.00;;;;;;6153253;23;20526;-83
2022/07/08 05:15:20;;;;;;;7.30;2.00;;;15.20;99.90;;;;;;6180001;23;20594;-83
2022/07/08 05:17:47;;;;;;;8.97;2.20;;;15.40;1.00;;;;;;6156050;23;20158;-83
2022/07/08 05:20:15;;;;;;;4.93;1.90;;;15.40;1.00;;;;;;6131281;23;20166;-83
2022/07/08 05:22:42;;;;;;;6.13;1.90;;;15.40;1.00;;;;;;6158972;23;20161;-83
2022/07/08 05:25:09;;;;;;;7.90;2.03;;;15.50;1.00;;;;;;6135101;23;20626;-83
2022/07/08 05:27:36;;;;;;;9.00;2.67;;;15.70;1.00;;;;;;6166061;23;20167;-83
2022/07/08 05:30:05;;;;;;;10.03;1.90;;;15.80;1.00;;;;;;6167270;23;20167;-83
2022/07/08 05:32:32;;;;;;;3.30;1.63;;;16.00;99.90;;;;;;6138671;23;20159;-84
2022/07/08 05:35:01;;;;;;;6.37;1.67;;;16.20;1.00;;;;;;6141205;23;20218;-84
2022/07/08 05:37:29;;;;;;;5.00;2.07;;;16.10;1.00;;;;;;6161386;23;20164;-83
2022/07/08 05:39:57;;;;;;;5.10;2.17;;;16.30;99.90;;;;;;6143215;23;20194;-83
2022/07/08 05:42:24;;;;;;;7.03;1.90;;;16.30;99.90;;;;;;6162146;23;20161;-83
2022/07/08 05:44:51;;;;;;;6.03;2.30;;;16.30;1.00;;;;;;6154442;23;20563;-83
2022/07/08 05:47:18;;;;;;;6.73;2.10;;;16.30;1.00;;;;;;6163281;23;20174;-83
2022/07/08 05:49:46;;;;;;;4.83;1.73;;;16.40;1.00;;;;;;6160943;23;20170;-83
2022/07/08 05:52:13;;;;;;;10.40;2.20;;;16.60;99.90;;;;;;6160116;23;20212;-83
2022/07/08 05:54:45;;;;;;;6.27;2.23;;;16.50;99.90;;;;;;6133162;23;20942;-82
2022/07/08 05:57:13;;;;;;;7.00;2.90;;;16.70;99.90;;;;;;6157195;23;20166;-82
2022/07/08 05:59:40;;;;;;;6.30;2.73;;;16.80;1.00;;;;;;6180956;23;20577;-83
2022/07/08 06:02:07;;;;;;;4.17;1.60;;;16.60;99.90;;;;;;6153636;23;20174;-84
2022/07/08 06:04:34;;;;;;;5.40;2.20;;;16.60;1.00;;;;;;6160573;23;20550;-82
2022/07/08 06:07:02;;;;;;;5.17;2.10;;;16.80;1.00;;;;;;6156658;23;20238;-84
2022/07/08 06:09:28;;;;;;;6.30;1.70;;;16.90;99.90;;;;;;6131467;23;20194;-82
2022/07/08 06:11:55;;;;;;;4.97;1.70;;;17.00;99.90;;;;;;6154535;23;20186;-83
2022/07/08 06:14:22;;;;;;;9.37;1.53;;;17.00;1.00;;;;;;6133897;23;20190;-84
2022/07/08 06:16:49;;;;;;;4.27;1.50;;;16.70;1.00;;;;;;6181088;23;20175;-83
2022/07/08 06:19:16;;;;;;;6.87;1.83;;;16.90;1.00;;;;;;6157891;23;20203;-84
2022/07/08 06:21:44;;;;;;;8.93;1.37;;;16.90;1.00;;;;;;6182788;23;20180;-84
2022/07/08 06:24:11;;;;;;;5.90;1.60;;;16.90;99.90;;;;;;6159657;23;20167;-84
2022/07/08 06:26:38;;;;;;;3.70;1.10;;;16.90;99.90;;;;;;6183516;23;20168;-85
2022/07/08 06:29:05;;;;;;;9.80;1.53;;;16.80;1.00;;;;;;6159170;23;20187;-84
2022/07/08 06:31:33;;;;;;;5.70;1.80;;;16.90;1.00;;;;;;6136790;23;20589;-83
2022/07/08 06:34:00;;;;;;;5.50;1.27;;;17.00;99.90;;;;;;6135732;23;20283;-83
2022/07/08 06:36:27;;;;;;;8.70;2.33;;;17.10;99.90;;;;;;6158211;23;20268;-84
2022/07/08 06:38:54;;;;;;;5.90;2.03;;;17.20;1.00;;;;;;6161348;23;20230;-82
2022/07/08 06:41:29;;;;;;;5.60;1.53;;;17.20;1.00;;;;;;6141281;23;20194;-83
2022/07/08 06:43:55;;;;;;;6.70;1.90;;;17.50;1.00;;;;;;6129646;23;20208;-83
2022/07/08 06:46:22;;;;;;;3.47;1.10;;;17.90;1.00;;;;;;6179913;23;20181;-84
2022/07/08 06:48:49;;;;;;;4.67;1.27;;;17.90;99.90;;;;;;6155638;23;20503;-83
2022/07/08 06:51:16;;;;;;;5.57;1.43;;;17.80;99.90;;;;;;6175972;23;20177;-84
2022/07/08 06:56:28;;;;;;;4.50;1.67;;;17.90;99.90;;;;;;6179629;23;20171;-84
2022/07/08 06:58:56;;;;;;;6.87;1.53;;;17.90;99.90;;;;;;6181153;23;20165;-84
2022/07/08 07:01:22;;;;;;;5.33;1.20;;;17.80;99.90;;;;;;6155078;23;20173;-83
2022/07/08 07:03:49;;;;;;;2.73;1.33;;;18.10;50.70;;;;;;6155586;23;20177;-83
2022/07/08 07:06:16;;;;;;;7.23;1.87;;;18.10;99.90;;;;;;6153853;23;20675;-84
2022/07/08 07:08:44;;;;;;;6.27;1.50;;;18.20;35.10;;;;;;6155985;23;20170;-84
2022/07/08 07:11:14;;;;;;;8.63;1.87;;;18.20;99.90;;;;;;6155413;23;20452;-84
2022/07/08 07:13:41;;;;;;;7.07;1.80;;;18.00;79.80;;;;;;6154894;23;20199;-83
2022/07/08 07:16:08;;;;;;;7.43;1.53;;;17.70;1.00;;;;;;6155848;23;20577;-83
2022/07/08 07:18:35;;;;;;;6.63;1.43;;;17.70;99.90;;;;;;6156399;23;20157;-83
2022/07/08 07:21:02;;;;;;;3.60;1.40;;;17.90;1.00;;;;;;6154226;23;20164;-84
2022/07/08 07:23:29;;;;;;;5.47;1.27;;;17.90;1.00;;;;;;6155599;23;20165;-83
2022/07/08 07:25:56;;;;;;;9.63;2.90;;;17.80;95.00;;;;;;6155698;23;20176;-83
2022/07/08 07:28:23;;;;;;;6.50;1.60;;;17.70;1.00;;;;;;6155110;23;20164;-84
2022/07/08 07:30:50;;;;;;;9.23;1.87;;;17.90;99.90;;;;;;6153553;23;20168;-83
2022/07/08 07:33:17;;;;;;;6.80;1.83;;;17.90;1.00;;;;;;6153387;23;20223;-84
2022/07/08 07:35:44;;;;;;;6.73;1.60;;;17.60;99.90;;;;;;6178889;23;20577;-84
2022/07/08 07:38:11;;;;;;;8.47;1.53;;;18.00;1.00;;;;;;6179465;23;20574;-84
2022/07/08 07:40:38;;;;;;;4.77;1.40;;;18.10;99.90;;;;;;6151591;23;20192;-83
2022/07/08 07:43:05;;;;;;;5.80;1.47;;;18.30;1.00;;;;;;6153475;23;20472;-84
2022/07/08 07:45:32;;;;;;;5.67;1.50;;;18.20;1.00;;;;;;6159186;23;20203;-84
2022/07/08 07:47:59;;;;;;;4.87;1.17;;;18.20;1.00;;;;;;6159657;23;20255;-83
2022/07/08 07:50:26;;;;;;;5.97;1.60;;;18.50;1.00;;;;;;6159454;23;20156;-84
2022/07/08 07:52:54;;;;;;;8.63;1.77;;;19.00;1.00;;;;;;6184851;23;20530;-87
2022/07/08 07:55:21;;;;;;;5.60;1.60;;;19.30;1.00;;;;;;6182400;23;20651;-84
2022/07/08 07:57:48;;;;;;;6.57;1.70;;;19.20;1.00;;;;;;6210639;23;20644;-82
2022/07/08 08:00:16;;;;;;;8.43;1.73;;;19.20;1.00;;;;;;6162704;23;20168;-82
2022/07/08 08:02:43;;;;;;;3.43;1.30;;;19.70;99.90;;;;;;6161916;23;20177;-86
2022/07/08 08:05:11;;;;;;;5.93;1.50;;;19.60;99.90;;;;;;6138188;23;20168;-86
2022/07/08 08:07:40;;;;;;;6.30;1.30;;;19.80;99.90;;;;;;6160110;23;20601;-85
2022/07/08 08:10:08;;;;;;;8.27;1.87;;;20.10;1.00;;;;;;6188621;23;20260;-85
2022/07/08 08:12:35;;;;;;;6.03;1.50;;;20.60;99.90;;;;;;6136061;23;20168;-85
2022/07/08 08:15:03;;;;;;;5.00;1.20;;;20.50;99.90;;;;;;6162415;23;20278;-85
2022/07/08 08:17:37;;;;;;;5.53;1.33;;;20.70;1.00;;;;;;6162291;23;20247;-86
2022/07/08 08:20:07;;;;;;;4.47;1.50;;;20.70;99.90;;;;;;6208445;23;20431;-84
2022/07/08 08:22:35;;;;;;;4.23;1.17;;;20.90;99.90;;;;;;6184141;23;20195;-84
2022/07/08 08:25:17;;;;;;;8.03;1.90;;;20.80;99.90;;;;;;6208601;23;20494;-83
2022/07/08 08:27:44;;;;;;;6.27;1.60;;;20.50;1.00;;;;;;6161187;23;20171;-85
2022/07/08 08:30:12;;;;;;;4.83;1.70;;;20.10;1.00;;;;;;6211828;23;20210;-86
2022/07/08 08:32:39;;;;;;;5.47;1.73;;;20.20;1.00;;;;;;6160476;23;20168;-85
2022/07/08 08:35:06;;;;;;;8.17;2.03;;;20.20;1.00;;;;;;6165483;23;20369;-86
2022/07/08 08:37:33;;;;;;;7.03;1.50;;;20.40;1.00;;;;;;6211494;23;20156;-86
2022/07/08 08:40:09;;;;;;;4.13;1.50;;;20.60;1.00;;;;;;6159727;23;20192;-85
2022/07/08 08:42:38;;;;;;;7.47;2.07;;;21.20;99.90;;;;;;6159982;23;20473;-86
2022/07/08 08:45:05;;;;;;;5.10;1.13;;;21.20;1.00;;;;;;6184134;23;20207;-85
2022/07/08 08:47:34;;;;;;;3.47;1.23;;;21.40;1.00;;;;;;6184615;23;20593;-86
2022/07/08 08:52:54;;;;;;;5.47;1.45;;;20.90;1.00;;;;;;6205183;23;20862;-82
2022/07/08 08:55:30;;;;;;;5.00;1.27;;;22.00;20.50;;;;;;6181636;23;20180;-82
2022/07/08 08:58:03;;;;;;;3.00;0.90;;;23.90;1.00;;;;;;6180253;23;20164;-81
2022/07/08 09:00:32;;;;;;;7.13;1.70;;;23.90;99.90;;;;;;6180593;23;20160;-79
2022/07/08 09:02:59;;;;;;;4.17;0.80;;;23.00;1.00;;;;;;6180723;23;20202;-82
2022/07/08 09:05:27;;;;;;;5.00;1.67;;;22.80;1.00;;;;;;6156629;23;20533;-81
2022/07/08 09:07:56;;;;;;;5.40;1.40;;;23.60;1.00;;;;;;6180544;23;20246;-82
2022/07/08 09:10:24;;;;;;;3.57;1.37;;;24.00;99.90;;;;;;6180604;23;20658;-81
2022/07/08 09:13:04;;;;;;;4.17;1.60;;;24.90;99.90;;;;;;6179739;23;20232;-80
2022/07/08 09:15:41;;;;;;;4.50;1.53;;;26.00;1.00;;;;;;6208372;23;20184;-80
2022/07/08 09:18:13;;;;;;;2.30;0.97;;;26.20;1.00;;;;;;6208283;23;20160;-80
2022/07/08 09:20:46;;;;;;;4.30;1.30;;;27.40;1.00;;;;;;6180653;23;20192;-81
2022/07/08 09:23:19;;;;;;;3.53;1.00;;;27.00;1.00;;;;;;6208378;23;20195;-80
2022/07/08 09:25:52;;;;;;;5.50;1.77;;;25.70;1.00;;;;;;6183071;23;20168;-80
2022/07/08 09:28:37;;;;;;;5.37;1.33;;;25.60;1.00;;;;;;6212128;23;20173;-80
2022/07/08 09:31:15;;;;;;;6.60;1.50;;;25.20;1.00;;;;;;6182529;23;20195;-80
2022/07/08 09:33:43;;;;;;;6.50;1.13;;;25.50;1.00;;;;;;6207852;23;20573;-80
2022/07/08 09:36:11;;;;;;;6.50;1.60;;;25.10;8.10;;;;;;6155896;23;20175;-81
2022/07/08 09:38:40;;;;;;;4.87;1.43;;;24.80;8.70;;;;;;6182615;23;20223;-80
2022/07/08 09:41:26;;;;;;;4.53;1.27;;;24.70;99.90;;;;;;6181315;23;20192;-80
2022/07/08 09:43:56;;;;;;;3.80;1.40;;;23.90;99.90;;;;;;6200378;23;20204;-80
2022/07/08 09:46:35;;;;;;;3.47;1.17;;;24.30;99.90;;;;;;6179720;23;20165;-81
2022/07/08 09:49:03;;;;;;;6.20;1.43;;;25.10;99.90;;;;;;6182052;23;20192;-81
2022/07/08 09:51:30;;;;;;;4.97;1.50;;;25.30;49.10;;;;;;6153550;23;20165;-81
2022/07/08 09:54:10;;;;;;;4.73;1.60;;;26.00;1.00;;;;;;6154826;23;20223;-81
2022/07/08 09:56:37;;;;;;;4.43;1.30;;;26.40;1.00;;;;;;6155532;23;20167;-81
2022/07/08 09:59:04;;;;;;;3.13;1.20;;;26.80;1.00;;;;;;6154917;23;20502;-81
2022/07/08 10:01:32;;;;;;;4.40;1.37;;;26.80;1.00;;;;;;6130482;23;20169;-81
2022/07/08 10:03:59;;;;;;;4.37;1.27;;;25.80;1.00;;;;;;6154170;23;20194;-81
2022/07/08 10:06:26;;;;;;;5.23;1.57;;;25.00;1.00;;;;;;6152872;23;20177;-83
2022/07/08 10:08:54;;;;;;;4.37;1.43;;;25.50;1.00;;;;;;6127590;23;20535;-81
2022/07/08 10:11:21;;;;;;;3.77;1.20;;;25.20;1.00;;;;;;6146186;23;20597;-82
2022/07/08 10:13:49;;;;;;;4.77;1.20;;;24.30;1.00;;;;;;6153306;23;20218;-82
2022/07/08 10:16:16;;;;;;;3.63;1.47;;;23.60;99.90;;;;;;6152635;23;20163;-82
2022/07/08 10:18:46;;;;;;;5.03;1.70;;;23.90;99.90;;;;;;6129553;23;20236;-82
2022/07/08 10:21:18;;;;;;;7.87;1.33;;;24.20;99.90;;;;;;6175637;23;20164;-82
2022/07/08 10:23:54;;;;;;;5.87;1.57;;;24.10;99.90;;;;;;6179145;23;20495;-81
2022/07/08 10:26:30;;;;;;;3.90;1.20;;;23.50;99.90;;;;;;6128314;23;20235;-81
2022/07/08 10:29:15;;;;;;;6.07;1.40;;;23.70;99.90;;;;;;6152002;23;20223;-82
2022/07/08 10:31:42;;;;;;;1.80;0.93;;;23.80;99.90;;;;;;6128679;23;20160;-80
2022/07/08 10:34:11;;;;;;;5.67;1.43;;;24.80;99.90;;;;;;6153312;23;20189;-84
2022/07/08 10:36:46;;;;;;;3.73;1.10;;;25.90;1.00;;;;;;6152935;23;20211;-81
2022/07/08 10:39:22;;;;;;;3.53;1.47;;;25.10;1.00;;;;;;6177586;23;20595;-81
2022/07/08 10:42:01;;;;;;;2.83;1.60;;;23.80;99.90;;;;;;6130294;23;20212;-78
2022/07/08 10:44:46;;;;;;;5.10;1.40;;;23.30;99.90;;;;;;6176328;23;20196;-80
2022/07/08 10:47:22;;;;;;;4.40;1.77;;;24.40;99.90;;;;;;6149108;23;20173;-80
2022/07/08 10:49:50;;;;;;;5.93;1.33;;;24.40;99.90;;;;;;6130903;23;20508;-80
2022/07/08 10:52:21;;;;;;;4.20;1.23;;;25.00;76.10;;;;;;6154737;23;20165;-80
2022/07/08 10:55:13;;;;;;;4.80;1.67;;;24.60;99.90;;;;;;6148514;23;20255;-80
2022/07/08 10:57:54;;;;;;;5.17;1.37;;;23.80;99.90;;;;;;6150888;23;20235;-79
2022/07/08 11:00:22;;;;;;;5.17;1.77;;;24.00;99.90;;;;;;6151124;23;20192;-80
2022/07/08 11:02:50;;;;;;;5.10;1.57;;;25.70;1.00;;;;;;6130027;23;20618;-80
2022/07/08 11:05:40;;;;;;;3.03;1.17;;;26.20;1.00;;;;;;6151780;23;20169;-81
2022/07/08 11:08:20;;;;;;;4.13;1.43;;;26.70;1.00;;;;;;6150890;23;20223;-79
2022/07/08 11:10:48;;;;;;;4.53;1.67;;;26.10;1.00;;;;;;6177564;23;20668;-79
2022/07/08 11:13:22;;;;;;;3.00;1.30;;;25.20;1.00;;;;;;6129760;23;20204;-81
2022/07/08 11:15:49;;;;;;;5.10;2.03;;;24.80;90.90;;;;;;6178917;23;20185;-81
2022/07/08 11:18:24;;;;;;;5.27;1.57;;;24.20;99.90;;;;;;6154185;23;20235;-80
2022/07/08 11:21:02;;;;;;;3.80;1.40;;;25.90;99.90;;;;;;6152731;23;20175;-81
2022/07/08 11:23:30;;;;;;;2.77;1.10;;;26.70;1.00;;;;;;6179817;23;20212;-79
2022/07/08 11:25:58;;;;;;;6.43;1.47;;;26.90;1.00;;;;;;6179234;23;20247;-79
2022/07/08 11:28:26;;;;;;;4.60;1.47;;;27.10;1.00;;;;;;6130102;23;20208;-80
2022/07/08 11:30:53;;;;;;;6.93;1.43;;;26.80;1.00;;;;;;6131703;23;20582;-83
2022/07/08 11:33:38;;;;;;;2.93;1.40;;;27.70;1.00;;;;;;6182304;23;20194;-81
2022/07/08 11:36:19;;;;;;;5.53;1.50;;;26.60;8.50;;;;;;6154915;23;20519;-81
2022/07/08 11:38:48;;;;;;;6.10;1.53;;;25.70;1.00;;;;;;6155768;23;20159;-80
2022/07/08 11:41:19;;;;;;;6.40;1.70;;;24.90;99.90;;;;;;6128911;23;20617;-82
2022/07/08 11:43:48;;;;;;;4.77;1.63;;;25.60;81.90;;;;;;6162082;23;20199;-80
2022/07/08 11:46:20;;;;;;;4.63;1.20;;;27.20;1.00;;;;;;6160290;23;20206;-81
2022/07/08 11:48:47;;;;;;;5.07;1.35;;;28.00;1.00;;;;;;6212885;23;20555;-81
2022/07/08 11:51:15;;;;;;;5.45;1.50;;;27.00;1.00;;;;;;6181545;23;20482;-81
2022/07/08 11:53:44;;;;;;;2.55;1.23;;;26.10;1.00;;;;;;6159884;23;20242;-81
2022/07/08 11:56:11;;;;;;;3.72;1.65;;;27.50;1.00;;;;;;6183013;23;20188;-79
2022/07/08 11:58:39;;;;;;;6.70;1.58;;;27.30;1.00;;;;;;6158903;23;20164;-81
2022/07/08 12:01:07;;;;;;;6.05;1.40;;;28.30;1.00;;;;;;6159917;23;20226;-84
2022/07/08 12:03:34;;;;;;;4.32;1.38;;;28.30;1.00;;;;;;6159807;23;20177;-83
2022/07/08 12:06:02;;;;;;;2.88;1.60;;;26.70;1.00;;;;;;6183656;23;20164;-83
2022/07/08 12:08:32;;;;;;;4.40;1.55;;;26.80;1.00;;;;;;6212254;23;20230;-82
2022/07/08 12:11:20;;;;;;;3.17;1.60;;;27.00;1.00;;;;;;6181324;23;20572;-83
2022/07/08 12:13:49;;;;;;;3.83;1.60;;;25.90;1.00;;;;;;6208110;23;20647;-81
2022/07/08 12:16:33;;;;;;;7.05;1.75;;;24.90;99.90;;;;;;6183260;23;20521;-81
2022/07/08 12:19:02;;;;;;;2.78;1.55;;;25.30;24.00;;;;;;6158096;23;20168;-82
2022/07/08 12:21:30;;;;;;;5.13;1.50;;;25.60;29.70;;;;;;6183408;23;20160;-81
2022/07/08 12:24:02;;;;;;;5.33;1.60;;;26.10;1.00;;;;;;6181170;23;20194;-81
2022/07/08 12:26:30;;;;;;;3.80;1.40;;;25.70;99.90;;;;;;6181820;23;20581;-82
2022/07/08 12:28:57;;;;;;;2.47;1.30;;;27.20;1.00;;;;;;6183192;23;20489;-82
2022/07/08 12:31:38;;;;;;;4.38;1.40;;;28.70;1.00;;;;;;6184253;23;20854;-82
2022/07/08 12:34:09;;;;;;;4.68;1.50;;;27.50;1.00;;;;;;6182012;23;20511;-83
2022/07/08 12:36:36;;;;;;;2.65;1.63;;;27.60;1.00;;;;;;6179881;23;20516;-83
2022/07/08 12:39:15;;;;;;;3.25;1.60;;;27.50;1.00;;;;;;6158736;23;20163;-80
2022/07/08 12:41:44;;;;;;;6.40;1.60;;;27.30;1.00;;;;;;6182522;23;20183;-82
2022/07/08 12:44:32;;;;;;;5.47;1.63;;;28.40;1.00;;;;;;6157324;23;20196;-81
2022/07/08 12:47:00;;;;;;;5.18;1.73;;;27.90;1.00;;;;;;6182096;23;20161;-81
2022/07/08 12:49:29;;;;;;;3.28;1.50;;;27.60;1.00;;;;;;6182303;23;20502;-83
2022/07/08 12:51:57;;;;;;;6.38;1.70;;;27.00;1.00;;;;;;6158455;23;20156;-82
2022/07/08 12:54:24;;;;;;;3.70;2.00;;;26.20;1.00;;;;;;6183206;23;20156;-81
2022/07/08 12:56:55;;;;;;;3.03;1.25;;;26.90;1.00;;;;;;6208384;23;20230;-81
2022/07/08 12:59:23;;;;;;;5.72;2.65;;;27.20;1.00;;;;;;6206283;23;20621;-81
2022/07/08 13:01:50;;;;;;;6.93;1.95;;;27.00;1.00;;;;;;6178051;23;20179;-82
2022/07/08 13:04:19;;;;;;;5.10;1.98;;;27.10;1.00;;;;;;6158138;23;20178;-82
2022/07/08 13:06:48;;;;;;;8.07;1.80;;;26.40;1.00;;;;;;6179796;23;20491;-80
2022/07/08 13:09:16;;;;;;;5.88;1.98;;;26.20;1.00;;;;;;6181499;23;20595;-81